Portada
METAR-TAF:

METAR-TAF

Aeroports :

Bou Saâda, Algèria

latitud: 35-20N, longitud: 004-12E, altitud: 461 m

Observació

L'informe es va fer fa 37 minuts, a les 15:00 UTC
Vent 6 kt del Nord/Nord-Est
Temperatura 25°C
Humitat 50%
Pressió 1009 hPa
Visibilitat 10 km o més
Escasses núvols a una alçada de 3000 ft
Núvols disperses a una alçada de 20000 ft

METAR: DAAD 011500Z 02006KT 9999 FEW030 SCT200 25/14 Q1009

Hora: 16:37 (15:37 UTC)

Pronòstic

L'informe es va fer fa 1 hora i 37 minuts, a les 14:00 UTC
Pronòstic vàlid del 01 a les 15 UTC al 01 a les 24 UTC
Vent 8 kt del Oest/Nord-Oest
Visibilitat 10 km o més
Escasses núvols a una alçada de 3300 ft
Núvols disperses a una alçada de 20000 ft

TAF: DAAD 011400Z 0115/0124 30008KT 9999 FEW033 SCT200

Observacions i pronòstics meteorològics de més de 4000 aeroports (METAR i TAF).

Les estacions disponibles són els punts grocs i vermells al mapa.

Posi el ratolí al punt desitjat per veure el nom de l'estació.

Feu clic per veure les observacions i els pronòstics meteorològics.

Per canviar el mapa: feu clic els botons verds amb una creu de color negre per apropar; al botó verd amb un guió per allunyar la imatge; o en les fletxes verdes per a mapes adjacents.


METAR-TAF: